Time;durP1;ratioP1;P1;durP2;ratioP2;P2;SDS_P1;SDS_P2;PMS_P1;PMS_P2;Temp;Humidity;BMP_temperature;BMP_pressure;BME280_temperature;BME280_humidity;BME280_pressure;Samples;Min_cycle;Max_cycle;Signal;HPM_P1;HPM_P2
2022/02/13 00:01:13;;;;;;;57.40;22.80;;;;;;;-1.37;76.40;101383.45;105800;1271;23210;-58
2022/02/13 00:03:41;;;;;;;65.70;25.50;;;;;;;-1.36;76.36;101375.84;106092;1271;22636;-59
2022/02/13 00:06:10;;;;;;;63.40;24.00;;;;;;;-1.37;76.40;101367.08;105785;1270;22603;-59
2022/02/13 00:08:39;;;;;;;59.80;25.40;;;;;;;-1.36;76.40;101366.79;105958;1270;22567;-55
2022/02/13 00:11:08;;;;;;;65.50;26.50;;;;;;;-1.35;76.44;101366.56;106028;1270;22769;-58
2022/02/13 00:13:37;;;;;;;66.30;26.40;;;;;;;-1.37;76.31;101359.71;106028;1270;24367;-56
2022/02/13 00:16:06;;;;;;;64.60;28.90;;;;;;;-1.38;76.45;101361.76;105966;1270;24924;-57
2022/02/13 00:18:35;;;;;;;67.50;26.70;;;;;;;-1.37;76.43;101359.88;105962;1270;25593;-56
2022/02/13 00:21:03;;;;;;;68.90;27.50;;;;;;;-1.37;76.40;101356.77;105864;1270;22698;-58
2022/02/13 00:23:32;;;;;;;72.50;28.20;;;;;;;-1.38;76.41;101350.41;105889;1271;22722;-58
2022/02/13 00:26:01;;;;;;;76.90;29.80;;;;;;;-1.41;76.34;101345.89;105873;1270;25305;-57
2022/02/13 00:28:29;;;;;;;65.50;26.80;;;;;;;-1.43;76.51;101344.23;105952;1270;24366;-56
2022/02/13 00:30:58;;;;;;;68.80;24.70;;;;;;;-1.45;76.56;101336.46;105862;1271;22731;-59
2022/02/13 00:33:26;;;;;;;68.80;27.90;;;;;;;-1.47;76.56;101330.41;105778;1271;25608;-58
2022/02/13 00:35:55;;;;;;;56.50;21.40;;;;;;;-1.48;76.68;101330.15;105792;1271;22604;-60
2022/02/13 00:38:23;;;;;;;57.10;20.80;;;;;;;-1.48;76.88;101327.84;105912;1270;22601;-58
2022/02/13 00:40:52;;;;;;;51.10;19.50;;;;;;;-1.46;76.71;101325.65;105840;1271;26903;-60
2022/02/13 00:43:22;;;;;;;52.80;19.60;;;;;;;-1.43;76.67;101326.23;105998;1271;22827;-57
2022/02/13 00:45:51;;;;;;;59.60;21.60;;;;;;;-1.41;76.71;101328.52;105776;1270;24416;-57
2022/02/13 00:48:19;;;;;;;61.80;22.20;;;;;;;-1.41;76.73;101325.89;105923;1271;22748;-58
2022/02/13 00:50:48;;;;;;;67.50;25.30;;;;;;;-1.40;76.80;101321.58;105850;1271;23792;-58
2022/02/13 00:53:20;;;;;;;54.90;20.60;;;;;;;-1.41;76.66;101317.90;105807;1271;24318;-57
2022/02/13 00:55:49;;;;;;;59.00;21.70;;;;;;;-1.41;76.88;101319.31;106065;1271;24305;-60
2022/02/13 00:58:17;;;;;;;59.00;22.40;;;;;;;-1.40;76.70;101320.87;105774;1271;27031;-61
2022/02/13 01:00:45;;;;;;;64.00;24.40;;;;;;;-1.41;76.63;101320.79;105848;1270;22738;-59
2022/02/13 01:03:14;;;;;;;68.20;23.50;;;;;;;-1.43;76.71;101318.34;105769;1271;22588;-58
2022/02/13 01:05:42;;;;;;;66.50;24.60;;;;;;;-1.43;76.86;101320.52;105790;1270;22569;-55
2022/02/13 01:08:11;;;;;;;64.00;24.40;;;;;;;-1.43;76.74;101316.77;105891;1270;25574;-58
2022/02/13 01:10:39;;;;;;;61.60;23.50;;;;;;;-1.48;76.72;101312.33;105712;1270;24276;-58
2022/02/13 01:13:08;;;;;;;60.00;23.70;;;;;;;-1.50;76.78;101311.89;105770;1271;22756;-60
2022/02/13 01:15:36;;;;;;;77.70;34.10;;;;;;;-1.51;76.97;101308.67;105979;1271;24858;-60
2022/02/13 01:18:05;;;;;;;67.50;30.30;;;;;;;-1.53;76.92;101301.77;105806;1270;24970;-58
2022/02/13 01:20:33;;;;;;;72.20;30.70;;;;;;;-1.55;76.96;101300.27;105835;1270;25562;-56
2022/02/13 01:23:02;;;;;;;75.70;30.40;;;;;;;-1.59;76.91;101297.00;105797;1270;24421;-58
2022/02/13 01:25:30;;;;;;;70.00;29.00;;;;;;;-1.61;76.97;101296.59;105877;1273;22616;-59
2022/02/13 01:28:00;;;;;;;64.30;25.10;;;;;;;-1.61;76.96;101288.29;106079;1270;25533;-59
2022/02/13 01:30:29;;;;;;;61.80;24.80;;;;;;;-1.61;77.06;101287.27;105823;1270;22638;-58
2022/02/13 01:32:58;;;;;;;67.00;27.20;;;;;;;-1.60;77.04;101284.63;105794;1270;22845;-58
2022/02/13 01:35:27;;;;;;;60.90;24.20;;;;;;;-1.58;77.14;101276.91;106044;1271;23013;-62
2022/02/13 01:37:55;;;;;;;56.60;22.60;;;;;;;-1.56;77.02;101276.14;106184;1270;24396;-57
2022/02/13 01:40:24;;;;;;;59.00;23.00;;;;;;;-1.56;76.92;101272.95;105799;1271;22651;-57
2022/02/13 01:42:52;;;;;;;57.10;26.00;;;;;;;-1.57;76.80;101270.90;106231;1270;22776;-58
2022/02/13 01:45:22;;;;;;;64.50;26.30;;;;;;;-1.59;76.89;101272.67;105896;1270;22690;-59
2022/02/13 01:47:50;;;;;;;66.50;28.30;;;;;;;-1.62;76.76;101268.86;106462;1270;22557;-59
2022/02/13 01:50:19;;;;;;;67.50;29.40;;;;;;;-1.64;76.85;101264.16;106068;1270;26644;-59
2022/02/13 01:52:49;;;;;;;60.40;26.20;;;;;;;-1.65;76.91;101267.98;106071;1270;22548;-57
2022/02/13 01:55:17;;;;;;;63.40;25.10;;;;;;;-1.68;76.89;101267.23;105942;1270;22601;-61
2022/02/13 01:57:46;;;;;;;71.40;27.20;;;;;;;-1.69;77.03;101258.61;105957;1271;24427;-59
2022/02/13 02:00:15;;;;;;;68.70;26.40;;;;;;;-1.70;77.05;101263.05;105664;1270;22725;-61
2022/02/13 02:02:44;;;;;;;67.50;26.30;;;;;;;-1.74;77.06;101259.73;105794;1270;26818;-58
2022/02/13 02:05:13;;;;;;;73.10;24.80;;;;;;;-1.75;77.13;101253.52;105899;1270;22970;-58
2022/02/13 02:07:41;;;;;;;61.20;25.60;;;;;;;-1.77;77.08;101251.94;105879;1271;22678;-59
2022/02/13 02:10:11;;;;;;;68.00;24.90;;;;;;;-1.77;77.12;101246.95;105782;1271;23617;-59
2022/02/13 02:12:39;;;;;;;71.00;26.50;;;;;;;-1.78;77.16;101242.61;105861;1274;24433;-59
2022/02/13 02:15:10;;;;;;;59.80;24.20;;;;;;;-1.80;77.29;101234.45;105901;1273;23227;-58
2022/02/13 02:17:38;;;;;;;59.90;24.00;;;;;;;-1.80;77.26;101232.20;106127;1272;24312;-63
2022/02/13 02:20:09;;;;;;;57.00;23.30;;;;;;;-1.81;77.23;101227.27;105978;1273;26114;-61
2022/02/13 02:22:37;;;;;;;62.40;23.90;;;;;;;-1.81;77.36;101222.02;106149;1273;22742;-58
2022/02/13 02:25:08;;;;;;;53.80;22.70;;;;;;;-1.80;77.26;101218.50;105985;1273;24954;-58
2022/02/13 02:27:36;;;;;;;61.30;21.70;;;;;;;-1.82;77.19;101216.23;106017;1270;25268;-61
2022/02/13 02:30:07;;;;;;;55.00;21.70;;;;;;;-1.84;77.33;101213.61;105772;1270;24018;-60
2022/02/13 02:32:35;;;;;;;54.00;22.50;;;;;;;-1.83;77.29;101209.80;105961;1271;25770;-58
2022/02/13 02:35:06;;;;;;;57.50;22.30;;;;;;;-1.83;77.22;101207.20;106174;1261;22591;-57
2022/02/13 02:37:34;;;;;;;54.10;22.90;;;;;;;-1.84;77.13;101202.48;105673;1271;22721;-56
2022/02/13 02:40:04;;;;;;;66.30;24.60;;;;;;;-1.85;77.23;101197.65;105606;1273;22743;-57
2022/02/13 02:42:32;;;;;;;51.50;22.80;;;;;;;-1.84;77.29;101194.44;105631;1273;22742;-58
2022/02/13 02:45:00;;;;;;;58.80;22.50;;;;;;;-1.85;77.17;101189.90;105622;1273;25753;-58
2022/02/13 02:47:29;;;;;;;60.60;23.30;;;;;;;-1.85;77.12;101187.16;105574;1273;22794;-56
2022/02/13 02:49:58;;;;;;;60.80;23.70;;;;;;;-1.86;77.32;101183.09;105695;1273;25763;-56
2022/02/13 02:52:27;;;;;;;53.90;21.80;;;;;;;-1.88;77.15;101175.33;105725;1273;25573;-57
2022/02/13 02:54:55;;;;;;;61.00;22.10;;;;;;;-1.89;77.23;101172.73;105721;1273;24340;-58
2022/02/13 02:57:24;;;;;;;52.50;20.80;;;;;;;-1.89;77.33;101170.31;105634;1273;25689;-57
2022/02/13 02:59:53;;;;;;;52.90;20.90;;;;;;;-1.90;77.24;101169.28;106048;1273;22647;-57
2022/02/13 03:02:21;;;;;;;53.20;22.40;;;;;;;-1.90;77.33;101163.71;106044;1273;24241;-56
2022/02/13 03:04:50;;;;;;;55.70;22.10;;;;;;;-1.90;77.33;101164.19;105709;1273;22833;-56
2022/02/13 03:07:18;;;;;;;50.20;21.50;;;;;;;-1.90;77.27;101157.31;105578;1274;25625;-57
2022/02/13 03:09:47;;;;;;;50.20;20.50;;;;;;;-1.91;77.10;101151.05;105628;1273;25692;-57
2022/02/13 03:12:15;;;;;;;52.00;20.20;;;;;;;-1.93;77.24;101150.09;105776;1273;22813;-55
2022/02/13 03:14:44;;;;;;;56.70;21.50;;;;;;;-1.95;77.15;101150.61;105624;1273;25594;-55
2022/02/13 03:17:12;;;;;;;56.80;21.00;;;;;;;-1.98;77.11;101147.91;105755;1273;24417;-56
2022/02/13 03:19:41;;;;;;;50.60;19.60;;;;;;;-2.01;77.18;101154.14;105633;1273;25688;-56
2022/02/13 03:22:09;;;;;;;49.90;18.70;;;;;;;-2.03;77.16;101152.39;105646;1273;24306;-57
2022/02/13 03:24:38;;;;;;;50.90;19.80;;;;;;;-2.02;77.36;101149.64;105831;1274;27310;-57
2022/02/13 03:27:07;;;;;;;51.80;19.50;;;;;;;-2.01;77.43;101149.44;105597;1273;22696;-58
2022/02/13 03:29:36;;;;;;;52.20;19.90;;;;;;;-2.02;77.26;101139.11;105751;1273;22539;-55
2022/02/13 03:32:05;;;;;;;56.00;21.90;;;;;;;-2.03;77.31;101133.46;105722;1273;22788;-54
2022/02/13 03:34:34;;;;;;;61.10;21.90;;;;;;;-2.05;77.37;101127.42;105692;1273;25535;-56
2022/02/13 03:37:03;;;;;;;56.10;21.10;;;;;;;-2.04;77.38;101125.86;105653;1273;22584;-57
2022/02/13 03:39:31;;;;;;;58.20;23.20;;;;;;;-2.05;77.35;101123.35;105822;1272;22649;-58
2022/02/13 03:42:00;;;;;;;53.60;21.80;;;;;;;-2.06;77.24;101124.83;105623;1273;22709;-58
2022/02/13 03:44:29;;;;;;;53.80;21.10;;;;;;;-2.07;77.39;101124.27;105707;1273;22571;-56
2022/02/13 03:46:58;;;;;;;60.20;21.70;;;;;;;-2.09;77.45;101119.48;105591;1273;22795;-57
2022/02/13 03:49:26;;;;;;;44.90;19.90;;;;;;;-2.10;77.40;101118.84;105616;1273;24112;-58
2022/02/13 03:51:54;;;;;;;46.70;17.70;;;;;;;-2.13;77.49;101115.59;105635;1273;22756;-57
2022/02/13 03:54:24;;;;;;;52.50;19.80;;;;;;;-2.13;77.67;101119.89;105762;1273;25610;-57
2022/02/13 03:56:52;;;;;;;47.70;18.20;;;;;;;-2.14;77.61;101120.05;105693;1273;22658;-56
2022/02/13 03:59:20;;;;;;;53.90;18.00;;;;;;;-2.16;77.57;101119.94;105618;1273;22661;-57
2022/02/13 04:01:49;;;;;;;47.20;18.30;;;;;;;-2.16;77.66;101118.05;105611;1273;25570;-55
2022/02/13 04:04:18;;;;;;;42.40;16.80;;;;;;;-2.16;77.62;101113.84;105791;1273;22756;-55
2022/02/13 04:06:46;;;;;;;52.20;18.70;;;;;;;-2.17;77.64;101107.80;105681;1273;22777;-58
2022/02/13 04:09:15;;;;;;;41.50;16.90;;;;;;;-2.17;77.53;101103.83;105829;1273;25615;-58
2022/02/13 04:11:43;;;;;;;39.90;16.30;;;;;;;-2.17;77.56;101092.73;105781;1273;24266;-54
2022/02/13 04:14:12;;;;;;;45.90;16.50;;;;;;;-2.18;77.57;101091.39;105624;1273;22664;-55
2022/02/13 04:16:41;;;;;;;48.80;17.40;;;;;;;-2.19;77.53;101093.27;105691;1273;22720;-55
2022/02/13 04:19:09;;;;;;;39.10;16.90;;;;;;;-2.22;77.46;101091.17;105637;1273;24335;-56
2022/02/13 04:21:38;;;;;;;39.30;15.90;;;;;;;-2.24;77.53;101089.67;105713;1273;25673;-57
2022/02/13 04:24:06;;;;;;;41.50;15.10;;;;;;;-2.25;77.52;101083.09;105622;1274;22639;-55
2022/02/13 04:26:35;;;;;;;39.50;15.40;;;;;;;-2.27;77.57;101083.53;106032;1273;22731;-56
2022/02/13 04:29:04;;;;;;;42.20;14.90;;;;;;;-2.27;77.57;101080.55;105728;1273;22701;-55
2022/02/13 04:31:35;;;;;;;40.50;13.70;;;;;;;-2.29;77.53;101076.17;105655;1273;23153;-56
2022/02/13 04:34:07;;;;;;;40.60;16.50;;;;;;;-2.29;77.56;101071.23;105731;1273;25714;-56
2022/02/13 04:36:35;;;;;;;37.60;15.10;;;;;;;-2.30;77.61;101068.18;105666;1273;22708;-58
2022/02/13 04:39:05;;;;;;;45.00;16.30;;;;;;;-2.32;77.57;101066.36;105638;1273;25795;-57
2022/02/13 04:41:34;;;;;;;39.50;14.90;;;;;;;-2.32;77.58;101063.23;105743;1273;22865;-58
2022/02/13 04:44:03;;;;;;;37.80;15.40;;;;;;;-2.32;77.73;101058.55;105611;1273;22656;-57
2022/02/13 04:46:32;;;;;;;42.50;16.30;;;;;;;-2.31;77.69;101058.40;105639;1274;24448;-55
2022/02/13 04:49:00;;;;;;;49.10;21.50;;;;;;;-2.32;77.68;101050.03;105601;1274;22767;-57
2022/02/13 04:51:29;;;;;;;49.60;22.30;;;;;;;-2.34;77.68;101044.54;105579;1272;24414;-54
2022/02/13 04:53:57;;;;;;;52.60;20.60;;;;;;;-2.37;77.63;101042.70;105606;1273;25725;-57
2022/02/13 04:56:26;;;;;;;70.30;25.40;;;;;;;-2.38;77.67;101037.16;105639;1273;24333;-57
2022/02/13 04:58:54;;;;;;;59.80;24.20;;;;;;;-2.40;77.76;101035.86;105700;1273;25670;-56
2022/02/13 05:01:22;;;;;;;45.40;18.30;;;;;;;-2.42;77.78;101033.59;105590;1273;25635;-56
2022/02/13 05:03:51;;;;;;;48.10;19.30;;;;;;;-2.43;77.84;101031.69;105590;1273;22727;-57
2022/02/13 05:06:19;;;;;;;56.30;20.00;;;;;;;-2.45;77.90;101030.03;105622;1273;24331;-54
2022/02/13 05:08:48;;;;;;;51.30;21.30;;;;;;;-2.47;77.83;101026.27;105759;1273;22806;-57
2022/02/13 05:11:17;;;;;;;48.40;19.20;;;;;;;-2.47;77.89;101017.20;105558;1273;22774;-54
2022/02/13 05:13:47;;;;;;;37.30;14.90;;;;;;;-2.47;77.98;101016.50;105660;1273;22631;-56
2022/02/13 05:16:15;;;;;;;47.20;16.50;;;;;;;-2.50;77.90;101009.20;105686;1273;22688;-55
2022/02/13 05:18:43;;;;;;;44.90;16.10;;;;;;;-2.53;78.00;101003.55;105593;1273;23182;-58
2022/02/13 05:21:12;;;;;;;50.70;15.40;;;;;;;-2.54;78.14;100994.00;105593;1273;22632;-58
2022/02/13 05:23:40;;;;;;;39.10;14.20;;;;;;;-2.53;78.22;100994.48;105605;1273;25624;-56
2022/02/13 05:26:10;;;;;;;49.60;15.80;;;;;;;-2.52;78.23;100995.19;105552;1273;22621;-55
2022/02/13 05:28:39;;;;;;;49.10;17.70;;;;;;;-2.51;78.17;100993.40;105731;1273;22864;-56
2022/02/13 05:31:07;;;;;;;59.40;22.80;;;;;;;-2.51;78.12;100988.11;105524;1273;22556;-58
2022/02/13 05:33:38;;;;;;;51.50;19.50;;;;;;;-2.50;78.30;100988.41;105942;1273;22873;-55
2022/02/13 05:36:07;;;;;;;40.60;15.80;;;;;;;-2.49;78.23;100985.07;105822;1273;22548;-58
2022/02/13 05:38:35;;;;;;;39.80;15.70;;;;;;;-2.49;78.22;100984.52;105591;1273;22738;-58
2022/02/13 05:41:04;;;;;;;41.90;16.20;;;;;;;-2.49;78.22;100980.52;105593;1273;25541;-57
2022/02/13 05:43:32;;;;;;;39.60;15.50;;;;;;;-2.51;78.20;100988.49;105680;1273;22722;-56
2022/02/13 05:46:00;;;;;;;45.20;16.10;;;;;;;-2.50;78.33;100988.74;105585;1273;24304;-55
2022/02/13 05:48:30;;;;;;;37.50;14.80;;;;;;;-2.49;78.30;100987.10;105535;1273;22630;-55
2022/02/13 05:50:59;;;;;;;45.90;16.00;;;;;;;-2.49;78.08;100982.65;105490;1273;22560;-56
2022/02/13 05:53:27;;;;;;;37.70;14.10;;;;;;;-2.48;78.23;100982.98;105545;1273;23202;-57
2022/02/13 05:55:55;;;;;;;41.40;16.00;;;;;;;-2.46;78.09;100982.13;105526;1273;22745;-56
2022/02/13 05:58:23;;;;;;;43.80;17.70;;;;;;;-2.45;78.33;100982.85;105499;1273;22787;-57
2022/02/13 06:00:52;;;;;;;42.40;16.30;;;;;;;-2.46;78.11;100985.65;105587;1273;27107;-57
2022/02/13 06:03:21;;;;;;;47.40;18.20;;;;;;;-2.47;78.08;100978.45;105646;1273;24141;-57
2022/02/13 06:05:49;;;;;;;51.30;20.50;;;;;;;-2.48;78.18;100979.77;105743;1272;25721;-58
2022/02/13 06:08:18;;;;;;;45.60;20.40;;;;;;;-2.50;78.18;100985.14;105547;1273;25625;-55
2022/02/13 06:10:47;;;;;;;43.80;17.00;;;;;;;-2.51;78.22;100981.61;105497;1273;22784;-54
2022/02/13 06:13:15;;;;;;;44.40;17.50;;;;;;;-2.52;78.17;100982.54;105619;1273;22880;-58
2022/02/13 06:15:44;;;;;;;37.30;15.10;;;;;;;-2.51;78.29;100976.38;105567;1273;22819;-56
2022/02/13 06:18:12;;;;;;;39.40;14.10;;;;;;;-2.51;78.28;100975.67;105876;1273;22793;-59
2022/02/13 06:20:40;;;;;;;34.40;13.10;;;;;;;-2.52;78.30;100982.31;105967;1273;22619;-55
2022/02/13 06:23:10;;;;;;;29.90;11.20;;;;;;;-2.51;78.38;100977.40;105841;1273;24234;-57
2022/02/13 06:25:38;;;;;;;29.70;10.70;;;;;;;-2.50;78.40;100977.88;105831;1273;22676;-55
2022/02/13 06:28:07;;;;;;;24.90;9.50;;;;;;;-2.51;78.35;100972.79;105981;1273;26007;-57
2022/02/13 06:30:36;;;;;;;26.80;9.10;;;;;;;-2.49;78.52;100971.10;105511;1273;23405;-57
2022/02/13 06:33:04;;;;;;;32.00;10.40;;;;;;;-2.47;78.53;100969.40;105610;1273;24234;-56
2022/02/13 06:35:33;;;;;;;27.50;9.90;;;;;;;-2.46;78.46;100968.55;105598;1273;22721;-56
2022/02/13 06:38:02;;;;;;;35.00;13.70;;;;;;;-2.42;78.58;100965.37;105765;1273;24238;-56
2022/02/13 06:40:31;;;;;;;31.30;11.70;;;;;;;-2.41;78.59;100965.71;105599;1273;22760;-56
2022/02/13 06:42:59;;;;;;;35.30;13.20;;;;;;;-2.39;78.62;100962.44;105883;1273;25287;-57
2022/02/13 06:45:28;;;;;;;32.70;12.60;;;;;;;-2.37;78.77;100951.45;105651;1273;25707;-54
2022/02/13 06:47:56;;;;;;;28.60;10.60;;;;;;;-2.34;78.68;100947.73;105599;1273;24148;-56
2022/02/13 06:50:25;;;;;;;30.50;10.80;;;;;;;-2.33;78.80;100948.63;105820;1273;22846;-56
2022/02/13 06:52:54;;;;;;;29.90;10.30;;;;;;;-2.31;78.72;100952.76;105741;1273;22675;-55
2022/02/13 06:55:24;;;;;;;31.30;11.10;;;;;;;-2.28;78.61;100961.39;105706;1273;22701;-56
2022/02/13 06:57:52;;;;;;;27.70;10.30;;;;;;;-2.24;78.63;100959.16;105730;1273;25615;-56
2022/02/13 07:00:21;;;;;;;29.00;10.80;;;;;;;-2.22;78.68;100954.27;105717;1273;22699;-54
2022/02/13 07:02:49;;;;;;;35.80;13.80;;;;;;;-2.19;78.63;100954.15;105629;1273;22634;-57
2022/02/13 07:05:19;;;;;;;29.90;12.20;;;;;;;-2.16;78.76;100949.50;105574;1273;22818;-53
2022/02/13 07:07:48;;;;;;;40.20;13.90;;;;;;;-2.12;78.66;100941.40;105608;1273;25586;-54
2022/02/13 07:10:17;;;;;;;39.40;14.00;;;;;;;-2.10;78.70;100946.18;105598;1273;22697;-56
2022/02/13 07:12:45;;;;;;;33.00;13.40;;;;;;;-2.07;78.58;100951.84;105903;1273;24794;-57
2022/02/13 07:15:15;;;;;;;33.40;14.00;;;;;;;-2.04;78.63;100951.95;105676;1273;25459;-57
2022/02/13 07:17:44;;;;;;;35.20;13.50;;;;;;;-2.01;78.56;100951.35;105720;1273;25658;-55
2022/02/13 07:20:14;;;;;;;35.30;13.10;;;;;;;-1.99;78.58;100947.77;105707;1273;25599;-55
2022/02/13 07:22:42;;;;;;;44.60;15.30;;;;;;;-1.97;78.53;100951.31;105728;1273;25431;-54
2022/02/13 07:25:11;;;;;;;53.30;17.90;;;;;;;-1.95;78.52;100949.36;105645;1273;24382;-55
2022/02/13 07:27:40;;;;;;;48.80;15.10;;;;;;;-1.92;78.63;100946.96;105720;1273;24329;-55
2022/02/13 07:30:13;;;;;;;36.80;12.40;;;;;;;-1.89;78.61;100939.02;105755;1273;23155;-55
2022/02/13 07:32:44;;;;;;;51.10;15.70;;;;;;;-1.84;78.70;100944.14;105750;1273;25516;-55
2022/02/13 07:35:13;;;;;;;70.50;22.70;;;;;;;-1.81;78.69;100940.11;105683;1273;22814;-57
2022/02/13 07:37:42;;;;;;;85.50;27.30;;;;;;;-1.75;78.69;100942.20;105825;1273;22552;-56
2022/02/13 07:40:14;;;;;;;72.00;23.90;;;;;;;-1.71;78.71;100939.41;105709;1273;24483;-57
2022/02/13 07:42:42;;;;;;;51.90;16.80;;;;;;;-1.67;78.68;100936.23;105863;1273;22656;-56
2022/02/13 07:45:11;;;;;;;45.00;16.10;;;;;;;-1.64;78.64;100935.00;105688;1273;22616;-57
2022/02/13 07:47:39;;;;;;;45.40;15.80;;;;;;;-1.61;78.66;100932.06;105795;1273;25825;-55
2022/02/13 07:50:09;;;;;;;44.50;16.30;;;;;;;-1.58;78.56;100929.34;106053;1273;24257;-56
2022/02/13 07:52:37;;;;;;;39.60;16.30;;;;;;;-1.55;78.55;100927.63;105755;1273;25513;-57
2022/02/13 07:55:08;;;;;;;53.60;21.00;;;;;;;-1.50;78.53;100928.21;105704;1273;22795;-57
2022/02/13 07:57:36;;;;;;;62.50;24.70;;;;;;;-1.46;78.54;100925.44;105627;1273;25453;-54
2022/02/13 08:00:09;;;;;;;62.70;24.30;;;;;;;-1.40;78.60;100928.44;105648;1273;22611;-57
2022/02/13 08:02:38;;;;;;;56.80;21.20;;;;;;;-1.34;78.54;100936.15;105628;1273;25554;-56
2022/02/13 08:05:08;;;;;;;33.90;10.90;;;;;;;-1.29;78.54;100932.97;109570;1272;22528;-55
2022/02/13 08:07:43;;;;;;;24.50;7.00;;;;;;;-1.24;78.51;100931.27;106395;1273;22596;-55
2022/02/13 08:10:11;;;;;;;21.30;5.40;;;;;;;-1.14;78.66;100931.58;105713;1273;24294;-57
2022/02/13 08:12:40;;;;;;;17.80;5.70;;;;;;;-1.02;78.53;100931.64;106101;1273;25713;-57
2022/02/13 08:15:09;;;;;;;21.20;5.00;;;;;;;-0.88;78.44;100933.50;105467;1273;25701;-57
2022/02/13 08:17:38;;;;;;;21.20;5.60;;;;;;;-0.73;78.44;100932.55;105598;1273;22576;-57
2022/02/13 08:20:13;;;;;;;18.00;5.30;;;;;;;-0.57;78.17;100933.85;106234;1273;22760;-54
2022/02/13 08:22:42;;;;;;;16.90;4.20;;;;;;;-0.40;78.06;100933.12;105573;1273;24455;-53
2022/02/13 08:25:11;;;;;;;15.90;4.60;;;;;;;-0.25;77.66;100926.02;105522;1273;23017;-56
2022/02/13 08:27:39;;;;;;;16.90;5.20;;;;;;;-0.10;77.51;100930.45;105526;1273;25622;-68
2022/02/13 08:30:10;;;;;;;15.20;4.00;;;;;;;0.03;77.49;100928.65;105511;1273;25503;-57
2022/02/13 08:32:38;;;;;;;19.60;5.60;;;;;;;0.14;77.41;100934.16;105542;1273;25532;-57
2022/02/13 08:35:09;;;;;;;16.40;5.50;;;;;;;0.24;77.03;100927.95;105529;1273;22541;-57
2022/02/13 08:37:38;;;;;;;19.60;5.70;;;;;;;0.35;76.96;100927.09;105673;1273;22595;-58
2022/02/13 08:40:12;;;;;;;17.30;4.70;;;;;;;0.49;76.81;100919.69;105703;1273;22569;-58
2022/02/13 08:42:41;;;;;;;15.80;5.00;;;;;;;0.63;76.61;100919.36;105602;1273;22578;-58
2022/02/13 08:45:10;;;;;;;13.90;4.10;;;;;;;0.79;76.23;100918.77;105622;1273;22780;-58
2022/02/13 08:47:39;;;;;;;14.90;4.00;;;;;;;0.97;75.75;100921.08;105887;1273;22706;-58
2022/02/13 08:50:09;;;;;;;14.10;4.30;;;;;;;1.13;75.65;100922.77;105520;1273;24048;-59
2022/02/13 08:52:39;;;;;;;19.40;3.90;;;;;;;1.24;75.50;100918.94;105683;1273;23015;-59
2022/02/13 08:55:13;;;;;;;14.90;4.30;;;;;;;1.36;75.39;100925.25;105620;1273;25519;-58
2022/02/13 08:57:42;;;;;;;16.70;3.70;;;;;;;1.47;74.91;100922.05;105708;1273;24234;-59
2022/02/13 09:00:15;;;;;;;14.10;3.50;;;;;;;1.58;74.85;100918.70;105571;1273;22644;-55
2022/02/13 09:02:44;;;;;;;16.50;4.30;;;;;;;1.67;74.94;100918.71;105314;1273;25587;-57
2022/02/13 09:05:13;;;;;;;14.00;3.50;;;;;;;1.76;74.55;100916.08;105425;1273;24294;-56
2022/02/13 09:07:42;;;;;;;16.70;3.80;;;;;;;1.85;74.22;100915.30;105454;1273;25465;-56
2022/02/13 09:10:13;;;;;;;17.70;5.90;;;;;;;1.96;74.21;100913.41;105876;1273;24236;-57
2022/02/13 09:12:44;;;;;;;19.40;4.10;;;;;;;2.03;73.98;100913.20;105791;1273;22623;-54
2022/02/13 09:15:14;;;;;;;11.80;3.10;;;;;;;2.12;73.87;100915.81;105401;1273;25593;-56
2022/02/13 09:17:43;;;;;;;14.90;4.00;;;;;;;2.21;73.40;100910.79;105724;1273;25312;-58
2022/02/13 09:20:13;;;;;;;16.40;3.60;;;;;;;2.32;73.26;100912.18;105720;1273;22541;-57
2022/02/13 09:22:42;;;;;;;16.60;4.90;;;;;;;2.42;73.33;100911.79;105809;1273;26307;-57
2022/02/13 09:25:10;;;;;;;11.80;3.10;;;;;;;2.47;72.86;100909.85;105336;1273;22560;-58
2022/02/13 09:27:39;;;;;;;14.80;3.80;;;;;;;2.52;72.75;100906.96;106414;1273;22658;-58
2022/02/13 09:30:09;;;;;;;15.20;4.20;;;;;;;2.57;73.05;100905.50;105560;1273;22992;-56
2022/02/13 09:32:39;;;;;;;13.70;3.00;;;;;;;2.62;72.82;100904.27;104830;1273;865635;-58
2022/02/13 09:35:10;;;;;;;16.20;3.80;;;;;;;2.72;72.19;100901.02;105496;1273;22550;-58
2022/02/13 09:37:40;;;;;;;14.50;3.30;;;;;;;2.77;71.76;100895.21;105728;1272;22545;-57
2022/02/13 09:40:11;;;;;;;13.50;3.70;;;;;;;2.85;71.83;100886.55;105636;1273;24300;-57
2022/02/13 09:42:42;;;;;;;14.20;3.80;;;;;;;2.89;71.88;100879.08;105711;1273;24331;-57
2022/02/13 09:45:11;;;;;;;10.60;2.70;;;;;;;2.92;70.71;100877.00;105595;1273;24276;-57
2022/02/13 09:47:40;;;;;;;12.30;3.60;;;;;;;2.95;71.12;100880.76;105580;1273;26555;-55
2022/02/13 09:50:10;;;;;;;17.70;4.70;;;;;;;2.99;71.14;100878.90;105751;1273;22563;-56
2022/02/13 09:52:39;;;;;;;10.40;3.30;;;;;;;3.03;70.96;100874.82;105453;1273;24274;-57
2022/02/13 09:55:09;;;;;;;18.20;4.20;;;;;;;3.10;69.78;100872.22;105491;1273;25408;-55
2022/02/13 10:00:24;;;;;;;14.60;3.40;;;;;;;3.24;70.68;100867.30;105378;1273;25506;-56
2022/02/13 10:02:54;;;;;;;15.50;3.40;;;;;;;3.31;70.22;100870.92;108656;1271;22532;-57
2022/02/13 10:05:29;;;;;;;13.60;3.80;;;;;;;3.36;70.10;100869.04;105738;1273;23090;-57
2022/02/13 10:07:59;;;;;;;21.30;4.30;;;;;;;3.45;70.02;100871.91;105802;1273;22723;-54
2022/02/13 10:10:28;;;;;;;15.40;3.40;;;;;;;3.51;70.15;100866.86;105448;1273;25274;-57
2022/02/13 10:12:56;;;;;;;12.00;3.40;;;;;;;3.53;69.60;100861.28;105655;1273;22566;-58
2022/02/13 10:15:30;;;;;;;17.40;4.20;;;;;;;3.59;69.32;100858.70;105935;1273;22556;-56
2022/02/13 10:18:01;;;;;;;16.20;4.10;;;;;;;3.63;68.82;100853.66;105557;1273;25383;-57
2022/02/13 10:20:32;;;;;;;12.90;3.60;;;;;;;3.66;69.14;100845.65;105851;1273;25542;-57
2022/02/13 10:23:06;;;;;;;15.50;3.60;;;;;;;3.67;69.19;100848.23;105642;1273;22977;-60
2022/02/13 10:25:36;;;;;;;16.90;3.80;;;;;;;3.70;68.67;100840.63;105714;1273;22603;-56
2022/02/13 10:28:13;;;;;;;11.80;3.70;;;;;;;3.73;68.65;100836.95;105719;1273;25257;-56
2022/02/13 10:30:44;;;;;;;14.80;4.00;;;;;;;3.77;68.68;100834.74;105721;1273;22561;-56
2022/02/13 10:33:21;;;;;;;15.90;3.10;;;;;;;3.83;68.98;100827.23;105661;1273;24305;-58
2022/02/13 10:36:10;;;;;;;11.90;3.40;;;;;;;3.89;68.31;100832.20;105917;1273;22577;-56
2022/02/13 10:38:41;;;;;;;16.60;3.70;;;;;;;3.94;68.23;100832.66;105994;1273;22567;-58
2022/02/13 10:41:20;;;;;;;12.70;3.20;;;;;;;3.99;68.49;100823.73;105867;1273;22541;-57
2022/02/13 10:44:07;;;;;;;12.20;3.20;;;;;;;4.05;68.16;100823.80;105827;1273;26539;-55
2022/02/13 10:46:37;;;;;;;13.40;3.20;;;;;;;4.10;67.69;100816.99;105878;1273;22539;-57
2022/02/13 10:49:07;;;;;;;13.10;3.30;;;;;;;4.13;67.32;100819.39;106375;1273;22551;-57
2022/02/13 10:51:36;;;;;;;12.10;2.80;;;;;;;4.17;67.45;100814.77;105789;1273;23092;-57
2022/02/13 10:54:05;;;;;;;12.10;3.20;;;;;;;4.19;67.57;100806.59;105721;1273;22623;-57
2022/02/13 10:56:35;;;;;;;10.80;3.00;;;;;;;4.22;67.05;100809.45;105908;1273;24437;-54
2022/02/13 10:59:04;;;;;;;13.50;3.20;;;;;;;4.26;67.38;100805.74;105614;1273;22547;-58
2022/02/13 11:01:33;;;;;;;15.20;3.40;;;;;;;4.30;67.39;100803.46;105644;1273;24273;-57
2022/02/13 11:04:05;;;;;;;13.90;3.60;;;;;;;4.34;67.12;100799.13;105573;1273;24445;-57
2022/02/13 11:06:35;;;;;;;11.90;3.30;;;;;;;4.38;66.69;100795.73;105785;1273;22561;-57
2022/02/13 11:09:11;;;;;;;11.80;3.00;;;;;;;4.40;67.02;100794.27;105713;1273;26293;-56
2022/02/13 11:11:41;;;;;;;12.50;3.10;;;;;;;4.42;66.91;100793.92;105823;1273;25496;-56
2022/02/13 11:14:22;;;;;;;12.60;3.70;;;;;;;4.46;67.04;100794.41;105725;1273;24357;-58
2022/02/13 11:16:53;;;;;;;17.70;4.00;;;;;;;4.50;66.26;100791.06;105666;1273;22626;-57